createdAt,value
2022-11-26T00:00:58.424Z,47.83
2022-11-26T00:03:26.733Z,56.30
2022-11-26T00:05:56.943Z,50.47
2022-11-26T00:08:30.911Z,49.10
2022-11-26T00:10:59.450Z,49.47
2022-11-26T00:13:31.677Z,40.67
2022-11-26T00:16:00.195Z,49.67
2022-11-26T00:18:28.343Z,46.53
2022-11-26T00:21:00.791Z,47.50
2022-11-26T00:23:30.098Z,49.53
2022-11-26T00:26:00.284Z,46.20
2022-11-26T00:28:32.777Z,44.30
2022-11-26T00:31:02.783Z,43.77
2022-11-26T00:33:31.514Z,45.97
2022-11-26T00:36:05.589Z,40.23
2022-11-26T00:38:34.273Z,46.23
2022-11-26T00:41:02.387Z,44.07
2022-11-26T00:43:32.260Z,44.57
2022-11-26T00:46:00.716Z,41.03
2022-11-26T00:48:28.778Z,47.50
2022-11-26T00:50:57.380Z,52.47
2022-11-26T00:53:27.428Z,49.13
2022-11-26T00:55:55.532Z,50.53
2022-11-26T00:58:28.716Z,48.57
2022-11-26T01:01:00.265Z,38.10
2022-11-26T01:03:29.781Z,26.90
2022-11-26T01:06:00.099Z,35.40
2022-11-26T01:08:32.663Z,37.13
2022-11-26T01:11:01.437Z,37.07
2022-11-26T01:13:29.904Z,38.90
2022-11-26T01:16:01.379Z,33.93
2022-11-26T01:18:30.056Z,38.73
2022-11-26T01:20:58.108Z,34.83
2022-11-26T01:23:26.656Z,38.20
2022-11-26T01:25:54.719Z,32.20
2022-11-26T01:28:22.848Z,29.47
2022-11-26T01:30:51.447Z,28.03
2022-11-26T01:33:20.887Z,43.43
2022-11-26T01:35:48.980Z,34.90
2022-11-26T01:38:17.826Z,26.83
2022-11-26T01:41:03.719Z,32.33
2022-11-26T01:43:36.353Z,33.60
2022-11-26T01:46:04.649Z,38.77
2022-11-26T01:48:35.666Z,34.30
2022-11-26T01:51:07.003Z,28.93
2022-11-26T01:53:41.554Z,32.33
2022-11-26T01:56:19.326Z,21.13
2022-11-26T01:58:52.014Z,33.00
2022-11-26T02:01:21.641Z,32.97
2022-11-26T02:03:59.810Z,30.23
2022-11-26T02:06:33.651Z,39.90
2022-11-26T02:09:05.190Z,31.50
2022-11-26T02:11:33.938Z,26.93
2022-11-26T02:14:04.854Z,32.07
2022-11-26T02:17:04.970Z,36.83
2022-11-26T02:20:04.619Z,27.93
2022-11-26T02:23:02.359Z,24.40
2022-11-26T02:25:50.868Z,29.97
2022-11-26T02:28:37.090Z,32.83
2022-11-26T02:31:11.323Z,31.40
2022-11-26T02:33:47.232Z,24.80
2022-11-26T02:36:22.383Z,42.60
2022-11-26T02:38:51.779Z,29.57
2022-11-26T02:41:20.526Z,29.20
2022-11-26T02:43:49.768Z,28.40
2022-11-26T02:46:21.792Z,36.53
2022-11-26T02:48:53.337Z,26.20
2022-11-26T02:51:29.465Z,28.97
2022-11-26T02:54:01.608Z,40.77
2022-11-26T02:56:31.448Z,24.60
2022-11-26T02:59:00.410Z,19.60
2022-11-26T03:01:35.088Z,22.77
2022-11-26T03:04:08.650Z,19.57
2022-11-26T03:06:38.442Z,26.13
2022-11-26T03:09:07.394Z,23.47
2022-11-26T03:11:35.751Z,27.57
2022-11-26T03:14:04.206Z,28.10
2022-11-26T03:16:33.743Z,26.57
2022-11-26T03:19:02.313Z,24.57
2022-11-26T03:21:30.754Z,25.90
2022-11-26T03:23:58.889Z,25.33
2022-11-26T03:26:27.076Z,23.40
2022-11-26T03:28:55.286Z,21.63
2022-11-26T03:31:23.384Z,24.27
2022-11-26T03:33:52.969Z,32.63
2022-11-26T03:36:21.091Z,25.70
2022-11-26T03:38:49.982Z,25.23
2022-11-26T03:41:18.210Z,28.00
2022-11-26T03:43:46.336Z,23.33
2022-11-26T03:46:14.514Z,24.70
2022-11-26T03:48:42.663Z,23.93
2022-11-26T03:51:12.267Z,24.77
2022-11-26T03:53:40.390Z,22.17
2022-11-26T03:56:09.171Z,40.00
2022-11-26T03:58:37.704Z,25.27
2022-11-26T04:01:10.882Z,25.97
2022-11-26T04:03:39.173Z,19.77
2022-11-26T04:06:08.168Z,28.27
2022-11-26T04:08:38.083Z,20.67
2022-11-26T04:11:06.799Z,48.80
2022-11-26T04:13:35.118Z,20.23
2022-11-26T04:16:03.335Z,24.33
2022-11-26T04:18:31.532Z,24.67
2022-11-26T04:20:59.637Z,24.83
2022-11-26T04:23:28.214Z,24.33
2022-11-26T04:25:58.138Z,27.17
2022-11-26T04:28:26.638Z,21.27
2022-11-26T04:30:54.719Z,20.77
2022-11-26T04:33:23.189Z,21.90
2022-11-26T04:35:51.949Z,19.47
2022-11-26T04:38:25.325Z,28.60
2022-11-26T04:40:54.599Z,20.10
2022-11-26T04:43:24.142Z,23.57
2022-11-26T04:45:52.367Z,26.47
2022-11-26T04:48:21.185Z,25.60
2022-11-26T04:50:50.146Z,26.13
2022-11-26T04:53:21.787Z,20.30
2022-11-26T04:55:52.119Z,22.53
2022-11-26T04:58:21.660Z,16.87
2022-11-26T05:00:51.614Z,22.70
2022-11-26T05:03:20.502Z,24.37
2022-11-26T05:05:49.972Z,22.70
2022-11-26T05:08:18.042Z,20.50
2022-11-26T05:10:46.519Z,27.93
2022-11-26T05:13:15.036Z,28.53
2022-11-26T05:15:43.168Z,24.70
2022-11-26T05:18:13.073Z,19.90
2022-11-26T05:20:41.691Z,29.60
2022-11-26T05:23:09.768Z,26.77
2022-11-26T05:25:38.352Z,26.60
2022-11-26T05:28:06.950Z,29.07
2022-11-26T05:30:37.023Z,26.00
2022-11-26T05:33:05.316Z,24.67
2022-11-26T05:35:35.166Z,28.13
2022-11-26T05:38:03.280Z,31.63
2022-11-26T05:40:31.488Z,27.90
2022-11-26T05:43:00.103Z,23.67
2022-11-26T05:45:29.141Z,23.37
2022-11-26T05:47:57.802Z,23.03
2022-11-26T05:50:25.930Z,24.17
2022-11-26T05:52:56.963Z,20.53
2022-11-26T05:55:25.542Z,26.77
2022-11-26T05:57:54.104Z,20.23
2022-11-26T06:00:22.430Z,20.33
2022-11-26T06:02:51.308Z,32.77
2022-11-26T06:05:19.750Z,24.13
2022-11-26T06:07:47.856Z,29.73
2022-11-26T06:10:17.457Z,24.83
2022-11-26T06:12:45.558Z,31.50
2022-11-26T06:15:14.113Z,28.33
2022-11-26T06:17:42.825Z,25.87
2022-11-26T06:20:12.061Z,27.83
2022-11-26T06:22:41.970Z,22.87
2022-11-26T06:25:14.280Z,36.67
2022-11-26T06:27:44.101Z,30.37
2022-11-26T06:30:13.426Z,37.20
2022-11-26T06:32:41.888Z,39.87
2022-11-26T06:35:11.208Z,45.17
2022-11-26T06:37:40.027Z,39.30
2022-11-26T06:40:10.471Z,32.53
2022-11-26T06:42:38.631Z,43.33
2022-11-26T06:45:11.011Z,43.47
2022-11-26T06:47:39.752Z,37.43
2022-11-26T06:50:10.879Z,32.53
2022-11-26T06:52:39.151Z,36.10
2022-11-26T06:55:08.790Z,39.53
2022-11-26T06:57:36.935Z,35.07
2022-11-26T07:00:07.639Z,38.13
2022-11-26T07:02:36.282Z,47.90
2022-11-26T07:05:04.615Z,50.63
2022-11-26T07:07:32.712Z,33.73
2022-11-26T07:10:01.343Z,46.97
2022-11-26T07:12:30.029Z,47.70
2022-11-26T07:14:58.130Z,48.03
2022-11-26T07:17:29.338Z,42.97
2022-11-26T07:19:57.452Z,45.73
2022-11-26T07:22:25.536Z,52.43
2022-11-26T07:24:54.219Z,40.47
2022-11-26T07:27:22.348Z,45.03
2022-11-26T07:29:51.789Z,44.60
2022-11-26T07:32:20.843Z,43.03
2022-11-26T07:34:52.589Z,44.53
2022-11-26T07:37:21.436Z,40.03
2022-11-26T07:39:49.626Z,40.77
2022-11-26T07:42:17.764Z,42.07
2022-11-26T07:44:46.380Z,43.33
2022-11-26T07:47:14.455Z,45.03
2022-11-26T07:49:42.527Z,42.97
2022-11-26T07:52:12.744Z,49.03
2022-11-26T07:54:41.147Z,45.53
2022-11-26T07:57:09.350Z,45.27
2022-11-26T07:59:37.943Z,57.23
2022-11-26T08:02:06.114Z,42.63
2022-11-26T08:04:34.254Z,57.07
2022-11-26T08:07:02.829Z,46.63
2022-11-26T08:09:32.495Z,44.17
2022-11-26T08:12:00.595Z,50.77
2022-11-26T08:14:29.394Z,46.33
2022-11-26T08:16:57.636Z,57.80
2022-11-26T08:19:27.061Z,49.67
2022-11-26T08:21:55.640Z,49.20
2022-11-26T08:24:24.123Z,46.43
2022-11-26T08:26:53.584Z,55.90
2022-11-26T08:29:21.663Z,44.13
2022-11-26T08:31:49.812Z,48.57
2022-11-26T08:34:18.904Z,49.30
2022-11-26T08:36:48.022Z,52.63
2022-11-26T08:39:20.010Z,55.13
2022-11-26T08:41:52.444Z,48.80
2022-11-26T08:44:23.030Z,48.83
2022-11-26T08:46:51.658Z,48.20
2022-11-26T08:49:19.796Z,42.00
2022-11-26T08:51:48.381Z,38.23
2022-11-26T08:54:16.579Z,52.37
2022-11-26T08:56:44.684Z,51.00
2022-11-26T08:59:12.999Z,53.00
2022-11-26T09:01:42.568Z,55.13
2022-11-26T09:04:10.655Z,63.40
2022-11-26T09:06:41.092Z,53.97
2022-11-26T09:09:17.991Z,58.63
2022-11-26T09:11:49.057Z,52.80
2022-11-26T09:14:18.981Z,62.90
2022-11-26T09:16:48.998Z,49.77
2022-11-26T09:19:18.048Z,62.90
2022-11-26T09:21:46.763Z,54.57
2022-11-26T09:24:16.533Z,70.43
2022-11-26T09:26:45.241Z,57.17
2022-11-26T09:29:14.701Z,57.43
2022-11-26T09:32:07.395Z,63.23
2022-11-26T09:34:33.791Z,64.33
2022-11-26T09:37:02.187Z,53.93
2022-11-26T09:39:30.771Z,52.90
2022-11-26T09:42:06.644Z,62.23
2022-11-26T09:45:01.025Z,64.33
2022-11-26T09:47:33.219Z,67.97
2022-11-26T09:50:08.869Z,55.47
2022-11-26T09:52:42.562Z,67.97
2022-11-26T09:55:17.914Z,52.40
2022-11-26T09:57:55.907Z,57.80
2022-11-26T10:00:27.100Z,56.97
2022-11-26T10:02:56.741Z,58.50
2022-11-26T10:05:41.146Z,59.47
2022-11-26T10:08:27.666Z,57.43
2022-11-26T10:11:03.782Z,60.20
2022-11-26T10:13:41.595Z,56.23
2022-11-26T10:16:18.097Z,53.47
2022-11-26T10:18:57.652Z,51.40
2022-11-26T10:21:57.038Z,55.90
2022-11-26T10:24:28.275Z,47.97
2022-11-26T10:26:57.309Z,51.07
2022-11-26T10:29:29.249Z,58.03
2022-11-26T10:32:02.169Z,57.70
2022-11-26T10:34:39.488Z,51.60
2022-11-26T10:37:10.131Z,45.87
2022-11-26T10:39:38.306Z,48.77
2022-11-26T10:42:14.805Z,50.80
2022-11-26T10:44:43.426Z,45.43
2022-11-26T10:47:24.639Z,44.43
2022-11-26T10:49:54.655Z,50.13
2022-11-26T10:52:28.683Z,43.60
2022-11-26T10:55:28.046Z,41.97
2022-11-26T10:58:02.628Z,50.80
2022-11-26T11:00:38.309Z,49.77
2022-11-26T11:03:16.051Z,48.27
2022-11-26T11:05:45.799Z,52.13
2022-11-26T11:08:29.285Z,43.57
2022-11-26T11:11:00.532Z,46.17
2022-11-26T11:13:41.696Z,41.00
2022-11-26T11:16:11.964Z,40.83
2022-11-26T11:18:50.020Z,40.93
2022-11-26T11:21:21.086Z,46.73
2022-11-26T11:26:43.682Z,47.37
2022-11-26T11:29:27.131Z,42.87
2022-11-26T11:31:56.472Z,40.63
2022-11-26T11:34:28.932Z,43.80
2022-11-26T11:37:01.423Z,44.07
2022-11-26T11:39:32.890Z,46.67
2022-11-26T11:42:03.164Z,50.80
2022-11-26T11:44:39.786Z,39.07
2022-11-26T11:47:31.596Z,42.43
2022-11-26T11:50:15.203Z,47.63
2022-11-26T11:52:55.283Z,45.83
2022-11-26T11:55:29.910Z,49.60
2022-11-26T11:58:16.193Z,44.30
2022-11-26T12:00:52.227Z,40.33
2022-11-26T12:03:50.724Z,42.07
2022-11-26T12:06:29.354Z,39.20
2022-11-26T12:09:08.190Z,49.90
2022-11-26T12:11:50.084Z,41.33
2022-11-26T12:14:23.790Z,44.90
2022-11-26T12:16:55.787Z,40.27
2022-11-26T12:19:35.211Z,33.43
2022-11-26T12:22:09.039Z,40.30
2022-11-26T12:24:43.174Z,35.07
2022-11-26T12:27:26.058Z,44.40
2022-11-26T12:29:59.021Z,46.93
2022-11-26T12:32:34.909Z,38.47
2022-11-26T12:35:08.061Z,40.80
2022-11-26T12:37:40.359Z,44.07
2022-11-26T12:40:17.655Z,41.63
2022-11-26T12:42:57.533Z,39.13
2022-11-26T12:45:40.096Z,40.30
2022-11-26T12:48:19.898Z,38.43
2022-11-26T12:50:53.483Z,39.67
2022-11-26T12:53:33.202Z,36.93
2022-11-26T12:56:10.172Z,37.87
2022-11-26T12:58:47.546Z,37.30
2022-11-26T13:01:15.963Z,37.27
2022-11-26T13:03:44.300Z,37.17
2022-11-26T13:06:26.621Z,38.10
2022-11-26T13:09:02.242Z,34.17
2022-11-26T13:11:41.525Z,32.40
2022-11-26T13:14:18.731Z,36.27
2022-11-26T13:16:55.284Z,32.70
2022-11-26T13:19:30.869Z,29.77
2022-11-26T13:22:37.914Z,32.37
2022-11-26T13:25:32.743Z,26.90
2022-11-26T13:28:07.676Z,31.73
2022-11-26T13:30:46.463Z,32.23
2022-11-26T13:33:48.635Z,29.30
2022-11-26T13:36:50.209Z,32.23
2022-11-26T13:39:54.546Z,29.27
2022-11-26T13:42:44.851Z,28.23
2022-11-26T13:45:33.054Z,33.93
2022-11-26T13:48:08.614Z,33.37
2022-11-26T13:50:43.025Z,38.33
2022-11-26T13:53:17.062Z,31.40
2022-11-26T13:55:49.479Z,24.63
2022-11-26T13:58:22.027Z,33.33
2022-11-26T14:00:50.654Z,30.33
2022-11-26T14:03:48.399Z,36.43
2022-11-26T14:06:17.352Z,40.57
2022-11-26T14:08:49.670Z,30.80
2022-11-26T14:11:54.416Z,41.03
2022-11-26T14:14:32.718Z,29.07
2022-11-26T14:17:16.300Z,32.27
2022-11-26T14:20:02.918Z,33.53
2022-11-26T14:22:34.044Z,33.33
2022-11-26T14:25:04.823Z,33.37
2022-11-26T14:27:35.752Z,35.07
2022-11-26T14:30:26.350Z,49.20
2022-11-26T14:33:13.005Z,39.73
2022-11-26T14:35:53.403Z,38.87
2022-11-26T14:38:25.738Z,33.43
2022-11-26T14:41:01.287Z,32.00
2022-11-26T14:43:30.886Z,36.90
2022-11-26T14:46:06.071Z,30.67
2022-11-26T14:48:37.315Z,34.60
2022-11-26T14:51:09.461Z,34.83
2022-11-26T14:53:43.915Z,37.50
2022-11-26T14:56:15.758Z,32.87
2022-11-26T14:58:48.106Z,35.43
2022-11-26T15:01:22.187Z,34.77
2022-11-26T15:03:58.864Z,41.13
2022-11-26T15:06:34.830Z,44.90
2022-11-26T15:09:15.344Z,36.00
2022-11-26T15:11:49.211Z,35.70
2022-11-26T15:14:22.289Z,35.50
2022-11-26T15:16:57.258Z,36.57
2022-11-26T15:19:26.443Z,34.07
2022-11-26T15:21:56.007Z,39.47
2022-11-26T15:24:24.226Z,41.37
2022-11-26T15:26:52.375Z,37.23
2022-11-26T15:29:31.767Z,37.17
2022-11-26T15:32:00.935Z,38.03
2022-11-26T15:34:30.301Z,30.40
2022-11-26T15:37:00.122Z,35.93
2022-11-26T15:39:31.410Z,33.00
2022-11-26T15:42:06.236Z,37.50
2022-11-26T15:44:42.236Z,32.97
2022-11-26T15:47:20.132Z,34.03
2022-11-26T15:49:52.198Z,37.97
2022-11-26T15:52:25.566Z,28.27
2022-11-26T15:55:16.813Z,38.40
2022-11-26T15:57:47.196Z,31.17
2022-11-26T16:00:23.373Z,30.90
2022-11-26T16:02:52.814Z,34.63
2022-11-26T16:05:29.102Z,34.87
2022-11-26T16:08:00.538Z,27.67
2022-11-26T16:10:31.555Z,33.07
2022-11-26T16:13:27.237Z,36.10
2022-11-26T16:16:01.303Z,31.57
2022-11-26T16:18:36.622Z,34.33
2022-11-26T16:21:08.459Z,39.23
2022-11-26T16:23:38.709Z,31.60
2022-11-26T16:26:17.586Z,32.40
2022-11-26T16:28:46.993Z,31.33
2022-11-26T16:31:16.145Z,22.13
2022-11-26T16:33:45.797Z,39.97
2022-11-26T16:36:22.816Z,25.57
2022-11-26T16:38:53.571Z,27.03
2022-11-26T16:41:25.507Z,27.47
2022-11-26T16:43:53.691Z,26.37
2022-11-26T16:46:25.116Z,29.20
2022-11-26T16:48:53.538Z,46.90
2022-11-26T16:51:22.224Z,31.47
2022-11-26T16:53:52.245Z,28.27
2022-11-26T16:56:24.331Z,26.77
2022-11-26T16:58:53.196Z,25.17
2022-11-26T17:01:21.652Z,24.90
2022-11-26T17:03:49.815Z,26.57
2022-11-26T17:06:23.310Z,23.47
2022-11-26T17:08:53.065Z,26.47
2022-11-26T17:11:21.211Z,25.40
2022-11-26T17:13:49.488Z,24.10
2022-11-26T17:16:20.169Z,29.93
2022-11-26T17:18:49.035Z,28.93
2022-11-26T17:21:18.335Z,36.47
2022-11-26T17:23:46.387Z,29.17
2022-11-26T17:26:20.289Z,74.27
2022-11-26T17:28:48.829Z,35.03
2022-11-26T17:31:17.271Z,33.80
2022-11-26T17:33:45.498Z,31.00
2022-11-26T17:36:17.384Z,33.17
2022-11-26T17:38:45.999Z,32.83
2022-11-26T17:41:16.507Z,73.07
2022-11-26T17:43:44.749Z,52.87
2022-11-26T17:46:19.487Z,28.60
2022-11-26T17:48:48.306Z,40.20
2022-11-26T17:51:17.212Z,29.80
2022-11-26T17:53:45.427Z,34.97
2022-11-26T17:56:19.253Z,36.50
2022-11-26T17:58:48.098Z,31.30
2022-11-26T18:01:17.005Z,36.20
2022-11-26T18:03:46.046Z,36.03
2022-11-26T18:06:17.066Z,31.80
2022-11-26T18:08:45.528Z,33.80
2022-11-26T18:11:14.865Z,37.77
2022-11-26T18:13:45.353Z,42.73
2022-11-26T18:16:13.544Z,44.87
2022-11-26T18:18:42.065Z,38.20
2022-11-26T18:21:10.606Z,35.27
2022-11-26T18:23:38.666Z,33.40
2022-11-26T18:26:15.220Z,36.43
2022-11-26T18:28:44.667Z,31.27
2022-11-26T18:31:13.362Z,41.07
2022-11-26T18:33:41.695Z,40.77
2022-11-26T18:36:10.296Z,40.20
2022-11-26T18:38:39.102Z,33.80
2022-11-26T18:41:08.649Z,31.07
2022-11-26T18:43:39.308Z,32.23
2022-11-26T18:46:16.008Z,32.23
2022-11-26T18:48:46.998Z,34.50
2022-11-26T18:51:16.584Z,27.53
2022-11-26T18:53:45.547Z,32.47
2022-11-26T18:56:15.738Z,32.40
2022-11-26T18:58:44.988Z,29.23
2022-11-26T19:01:16.133Z,36.20
2022-11-26T19:03:44.884Z,34.13
2022-11-26T19:06:16.713Z,37.30
2022-11-26T19:08:45.328Z,30.83
2022-11-26T19:11:15.082Z,37.83
2022-11-26T19:13:43.891Z,43.80
2022-11-26T19:16:16.950Z,44.00
2022-11-26T19:18:46.105Z,38.40
2022-11-26T19:21:21.860Z,31.67
2022-11-26T19:23:50.503Z,32.87
2022-11-26T19:26:19.368Z,49.80
2022-11-26T19:28:48.231Z,42.73
2022-11-26T19:31:21.524Z,36.73
2022-11-26T19:33:54.279Z,38.37
2022-11-26T19:36:24.399Z,37.20
2022-11-26T19:38:55.911Z,38.27
2022-11-26T19:41:25.960Z,28.73
2022-11-26T19:43:54.870Z,37.40
2022-11-26T19:46:25.907Z,40.30
2022-11-26T19:48:55.821Z,40.53
2022-11-26T19:51:26.288Z,34.33
2022-11-26T19:53:58.686Z,36.83
2022-11-26T19:56:29.151Z,39.67
2022-11-26T19:58:58.856Z,47.83
2022-11-26T20:01:30.722Z,50.83
2022-11-26T20:04:01.002Z,33.63
2022-11-26T20:06:31.056Z,29.67
2022-11-26T20:08:59.556Z,30.93
2022-11-26T20:11:29.713Z,42.90
2022-11-26T20:13:58.884Z,34.50
2022-11-26T20:16:31.247Z,31.43
2022-11-26T20:19:00.432Z,37.07
2022-11-26T20:21:31.768Z,33.13
2022-11-26T20:24:01.919Z,31.93
2022-11-26T20:26:31.988Z,32.83
2022-11-26T20:29:03.402Z,32.70
2022-11-26T20:31:33.324Z,40.13
2022-11-26T20:34:03.642Z,32.73
2022-11-26T20:36:32.523Z,37.43
2022-11-26T20:39:02.704Z,40.73
2022-11-26T20:41:31.958Z,37.93
2022-11-26T20:44:00.179Z,47.07
2022-11-26T20:46:28.890Z,37.57
2022-11-26T20:48:58.656Z,37.23
2022-11-26T20:51:26.959Z,42.03
2022-11-26T20:53:59.145Z,42.63
2022-11-26T20:56:27.675Z,39.63
2022-11-26T20:58:56.239Z,36.40
2022-11-26T21:01:26.427Z,47.13
2022-11-26T21:03:56.062Z,34.70
2022-11-26T21:06:30.304Z,39.63
2022-11-26T21:09:00.754Z,37.43
2022-11-26T21:11:31.428Z,38.83
2022-11-26T21:14:01.817Z,44.83
2022-11-26T21:16:30.901Z,32.40
2022-11-26T21:18:59.812Z,30.20
2022-11-26T21:21:30.273Z,32.57
2022-11-26T21:23:58.747Z,34.93
2022-11-26T21:26:27.863Z,31.10
2022-11-26T21:28:58.076Z,37.37
2022-11-26T21:31:27.139Z,31.47
2022-11-26T21:33:57.111Z,34.07
2022-11-26T21:36:26.838Z,32.80
2022-11-26T21:38:56.412Z,29.47
2022-11-26T21:41:25.922Z,29.10
2022-11-26T21:43:54.694Z,35.90
2022-11-26T21:46:25.049Z,38.07
2022-11-26T21:48:54.167Z,37.00
2022-11-26T21:51:23.461Z,36.43
2022-11-26T21:53:52.285Z,32.33
2022-11-26T21:56:25.060Z,33.70
2022-11-26T21:58:53.559Z,33.97
2022-11-26T22:01:25.473Z,34.80
2022-11-26T22:03:55.620Z,28.73
2022-11-26T22:06:25.143Z,29.97
2022-11-26T22:08:53.740Z,29.93
2022-11-26T22:11:26.171Z,27.97
2022-11-26T22:13:55.112Z,31.57
2022-11-26T22:16:24.910Z,27.40
2022-11-26T22:18:54.625Z,32.00
2022-11-26T22:21:25.388Z,29.23
2022-11-26T22:23:54.292Z,24.93
2022-11-26T22:26:24.496Z,28.70
2022-11-26T22:28:53.380Z,28.60
2022-11-26T22:31:23.558Z,23.93
2022-11-26T22:33:55.401Z,29.83
2022-11-26T22:36:24.419Z,30.80
2022-11-26T22:38:52.577Z,25.30
2022-11-26T22:41:21.511Z,23.17
2022-11-26T22:43:51.853Z,26.47
2022-11-26T22:46:21.743Z,25.43
2022-11-26T22:48:52.208Z,26.50
2022-11-26T22:51:20.739Z,23.90
2022-11-26T22:53:51.454Z,19.27
2022-11-26T22:56:20.243Z,25.23
2022-11-26T22:58:50.255Z,24.57
2022-11-26T23:01:22.831Z,23.33
2022-11-26T23:03:51.992Z,23.47
2022-11-26T23:06:21.608Z,21.57
2022-11-26T23:08:50.093Z,23.93
2022-11-26T23:11:22.618Z,23.17
2022-11-26T23:13:52.606Z,22.83
2022-11-26T23:16:23.432Z,25.13
2022-11-26T23:18:52.352Z,24.17
2022-11-26T23:21:22.968Z,21.63
2022-11-26T23:23:52.394Z,27.97
2022-11-26T23:26:26.778Z,22.60
2022-11-26T23:28:58.360Z,20.43
2022-11-26T23:31:30.384Z,28.90
2022-11-26T23:33:59.218Z,23.63
2022-11-26T23:36:28.542Z,26.43
2022-11-26T23:38:57.331Z,22.87
2022-11-26T23:41:25.784Z,27.33
2022-11-26T23:43:53.920Z,25.47
2022-11-26T23:46:25.566Z,29.47
2022-11-26T23:48:54.203Z,27.23
2022-11-26T23:51:24.157Z,28.63
2022-11-26T23:53:53.949Z,25.80
2022-11-26T23:56:24.619Z,26.57
2022-11-26T23:58:54.524Z,24.60
